sensor_id;sensor_type;location;lat;lon;timestamp;P1;durP1;ratioP1;P2;durP2;ratioP2
16031;SDS011;8120;48.308;8.914;2022-11-15T00:01:06;2.00;;;1.20;;
16031;SDS011;8120;48.308;8.914;2022-11-15T00:03:34;1.70;;;1.20;;
16031;SDS011;8120;48.308;8.914;2022-11-15T00:06:02;1.57;;;1.37;;
16031;SDS011;8120;48.308;8.914;2022-11-15T00:08:32;2.87;;;1.50;;
16031;SDS011;8120;48.308;8.914;2022-11-15T00:11:01;1.80;;;1.37;;
16031;SDS011;8120;48.308;8.914;2022-11-15T00:13:30;2.27;;;1.57;;
16031;SDS011;8120;48.308;8.914;2022-11-15T00:15:59;3.60;;;1.40;;
16031;SDS011;8120;48.308;8.914;2022-11-15T00:18:28;4.80;;;1.53;;
16031;SDS011;8120;48.308;8.914;2022-11-15T00:21:02;1.40;;;1.10;;
16031;SDS011;8120;48.308;8.914;2022-11-15T00:23:32;1.57;;;1.47;;
16031;SDS011;8120;48.308;8.914;2022-11-15T00:26:01;1.97;;;1.80;;
16031;SDS011;8120;48.308;8.914;2022-11-15T00:28:29;3.30;;;1.60;;
16031;SDS011;8120;48.308;8.914;2022-11-15T00:30:59;2.37;;;1.50;;
16031;SDS011;8120;48.308;8.914;2022-11-15T00:33:28;1.80;;;1.40;;
16031;SDS011;8120;48.308;8.914;2022-11-15T00:36:00;3.90;;;1.97;;
16031;SDS011;8120;48.308;8.914;2022-11-15T00:38:30;8.33;;;3.20;;
16031;SDS011;8120;48.308;8.914;2022-11-15T00:41:00;3.47;;;2.40;;
16031;SDS011;8120;48.308;8.914;2022-11-15T00:43:34;5.00;;;1.47;;
16031;SDS011;8120;48.308;8.914;2022-11-15T00:46:02;1.60;;;1.23;;
16031;SDS011;8120;48.308;8.914;2022-11-15T00:48:31;2.00;;;1.63;;
16031;SDS011;8120;48.308;8.914;2022-11-15T00:50:59;1.50;;;1.20;;
16031;SDS011;8120;48.308;8.914;2022-11-15T00:53:27;2.07;;;1.30;;
16031;SDS011;8120;48.308;8.914;2022-11-15T00:55:57;3.57;;;1.40;;
16031;SDS011;8120;48.308;8.914;2022-11-15T00:58:25;2.30;;;1.50;;
16031;SDS011;8120;48.308;8.914;2022-11-15T01:00:53;3.37;;;2.07;;
16031;SDS011;8120;48.308;8.914;2022-11-15T01:03:21;2.27;;;1.50;;
16031;SDS011;8120;48.308;8.914;2022-11-15T01:05:49;2.37;;;1.40;;
16031;SDS011;8120;48.308;8.914;2022-11-15T01:08:16;2.53;;;1.53;;
16031;SDS011;8120;48.308;8.914;2022-11-15T01:10:44;2.40;;;1.57;;
16031;SDS011;8120;48.308;8.914;2022-11-15T01:13:13;2.80;;;1.43;;
16031;SDS011;8120;48.308;8.914;2022-11-15T01:15:41;2.73;;;2.00;;
16031;SDS011;8120;48.308;8.914;2022-11-15T01:18:09;2.80;;;1.97;;
16031;SDS011;8120;48.308;8.914;2022-11-15T01:20:39;3.83;;;2.40;;
16031;SDS011;8120;48.308;8.914;2022-11-15T01:23:07;6.17;;;2.60;;
16031;SDS011;8120;48.308;8.914;2022-11-15T01:25:35;6.03;;;3.00;;
16031;SDS011;8120;48.308;8.914;2022-11-15T01:28:03;4.00;;;2.50;;
16031;SDS011;8120;48.308;8.914;2022-11-15T01:30:33;4.67;;;2.67;;
16031;SDS011;8120;48.308;8.914;2022-11-15T01:33:00;4.07;;;2.67;;
16031;SDS011;8120;48.308;8.914;2022-11-15T01:35:28;3.30;;;2.40;;
16031;SDS011;8120;48.308;8.914;2022-11-15T01:37:56;4.60;;;2.50;;
16031;SDS011;8120;48.308;8.914;2022-11-15T01:40:24;7.43;;;2.97;;
16031;SDS011;8120;48.308;8.914;2022-11-15T01:42:52;5.17;;;2.30;;
16031;SDS011;8120;48.308;8.914;2022-11-15T01:45:20;5.33;;;2.60;;
16031;SDS011;8120;48.308;8.914;2022-11-15T01:47:50;4.17;;;2.30;;
16031;SDS011;8120;48.308;8.914;2022-11-15T01:50:22;3.63;;;2.10;;
16031;SDS011;8120;48.308;8.914;2022-11-15T01:52:55;4.40;;;1.93;;
16031;SDS011;8120;48.308;8.914;2022-11-15T01:55:24;3.67;;;2.30;;
16031;SDS011;8120;48.308;8.914;2022-11-15T01:57:55;2.17;;;1.70;;
16031;SDS011;8120;48.308;8.914;2022-11-15T02:00:26;5.13;;;1.80;;
16031;SDS011;8120;48.308;8.914;2022-11-15T02:02:55;3.77;;;2.07;;
16031;SDS011;8120;48.308;8.914;2022-11-15T02:05:23;2.70;;;1.57;;
16031;SDS011;8120;48.308;8.914;2022-11-15T02:07:51;2.73;;;1.67;;
16031;SDS011;8120;48.308;8.914;2022-11-15T02:10:20;2.37;;;1.57;;
16031;SDS011;8120;48.308;8.914;2022-11-15T02:12:49;1.77;;;1.37;;
16031;SDS011;8120;48.308;8.914;2022-11-15T02:15:19;3.53;;;1.77;;
16031;SDS011;8120;48.308;8.914;2022-11-15T02:18:01;2.93;;;1.60;;
16031;SDS011;8120;48.308;8.914;2022-11-15T02:20:40;3.57;;;1.73;;
16031;SDS011;8120;48.308;8.914;2022-11-15T02:23:20;2.93;;;1.73;;
16031;SDS011;8120;48.308;8.914;2022-11-15T02:26:08;2.27;;;1.63;;
16031;SDS011;8120;48.308;8.914;2022-11-15T02:28:53;3.70;;;1.80;;
16031;SDS011;8120;48.308;8.914;2022-11-15T02:31:28;3.30;;;1.33;;
16031;SDS011;8120;48.308;8.914;2022-11-15T02:34:05;1.90;;;1.50;;
16031;SDS011;8120;48.308;8.914;2022-11-15T02:36:40;2.13;;;1.47;;
16031;SDS011;8120;48.308;8.914;2022-11-15T02:39:13;3.47;;;2.13;;
16031;SDS011;8120;48.308;8.914;2022-11-15T02:41:50;3.27;;;1.80;;
16031;SDS011;8120;48.308;8.914;2022-11-15T02:44:23;4.20;;;1.70;;
16031;SDS011;8120;48.308;8.914;2022-11-15T02:46:54;3.07;;;1.83;;
16031;SDS011;8120;48.308;8.914;2022-11-15T02:49:40;2.83;;;1.90;;
16031;SDS011;8120;48.308;8.914;2022-11-15T02:52:13;3.47;;;1.97;;
16031;SDS011;8120;48.308;8.914;2022-11-15T02:54:52;4.90;;;2.23;;
16031;SDS011;8120;48.308;8.914;2022-11-15T02:57:23;3.50;;;2.07;;
16031;SDS011;8120;48.308;8.914;2022-11-15T03:00:03;7.17;;;2.00;;
16031;SDS011;8120;48.308;8.914;2022-11-15T03:05:30;2.17;;;1.40;;
16031;SDS011;8120;48.308;8.914;2022-11-15T03:08:05;3.10;;;1.70;;
16031;SDS011;8120;48.308;8.914;2022-11-15T03:10:40;2.17;;;1.40;;
16031;SDS011;8120;48.308;8.914;2022-11-15T03:13:17;2.57;;;1.43;;
16031;SDS011;8120;48.308;8.914;2022-11-15T03:15:52;1.83;;;1.30;;
16031;SDS011;8120;48.308;8.914;2022-11-15T03:18:27;2.87;;;1.70;;
16031;SDS011;8120;48.308;8.914;2022-11-15T03:20:59;3.13;;;1.43;;
16031;SDS011;8120;48.308;8.914;2022-11-15T03:23:28;2.13;;;1.20;;
16031;SDS011;8120;48.308;8.914;2022-11-15T03:25:58;2.30;;;1.43;;
16031;SDS011;8120;48.308;8.914;2022-11-15T03:28:28;1.27;;;1.17;;
16031;SDS011;8120;48.308;8.914;2022-11-15T03:31:01;2.37;;;1.20;;
16031;SDS011;8120;48.308;8.914;2022-11-15T03:33:53;1.40;;;1.27;;
16031;SDS011;8120;48.308;8.914;2022-11-15T03:36:24;1.70;;;1.20;;
16031;SDS011;8120;48.308;8.914;2022-11-15T03:38:53;0.93;;;0.80;;
16031;SDS011;8120;48.308;8.914;2022-11-15T03:41:24;2.87;;;1.03;;
16031;SDS011;8120;48.308;8.914;2022-11-15T03:43:59;1.50;;;1.40;;
16031;SDS011;8120;48.308;8.914;2022-11-15T03:46:38;2.57;;;1.30;;
16031;SDS011;8120;48.308;8.914;2022-11-15T03:49:12;2.60;;;1.30;;
16031;SDS011;8120;48.308;8.914;2022-11-15T03:51:42;1.70;;;1.00;;
16031;SDS011;8120;48.308;8.914;2022-11-15T03:54:11;1.90;;;1.17;;
16031;SDS011;8120;48.308;8.914;2022-11-15T03:56:39;1.80;;;1.10;;
16031;SDS011;8120;48.308;8.914;2022-11-15T03:59:07;2.00;;;1.30;;
16031;SDS011;8120;48.308;8.914;2022-11-15T04:01:35;2.13;;;1.47;;
16031;SDS011;8120;48.308;8.914;2022-11-15T04:04:03;2.40;;;1.53;;
16031;SDS011;8120;48.308;8.914;2022-11-15T04:06:32;3.27;;;2.03;;
16031;SDS011;8120;48.308;8.914;2022-11-15T04:09:00;2.67;;;1.90;;
16031;SDS011;8120;48.308;8.914;2022-11-15T04:11:28;2.83;;;1.73;;
16031;SDS011;8120;48.308;8.914;2022-11-15T04:13:56;4.47;;;1.83;;
16031;SDS011;8120;48.308;8.914;2022-11-15T04:16:24;2.10;;;1.30;;
16031;SDS011;8120;48.308;8.914;2022-11-15T04:18:52;4.33;;;1.93;;
16031;SDS011;8120;48.308;8.914;2022-11-15T04:21:35;2.93;;;1.90;;
16031;SDS011;8120;48.308;8.914;2022-11-15T04:24:20;2.47;;;2.00;;
16031;SDS011;8120;48.308;8.914;2022-11-15T04:26:48;3.33;;;2.00;;
16031;SDS011;8120;48.308;8.914;2022-11-15T04:29:15;3.43;;;1.90;;
16031;SDS011;8120;48.308;8.914;2022-11-15T04:32:01;4.17;;;2.20;;
16031;SDS011;8120;48.308;8.914;2022-11-15T04:34:30;3.43;;;2.10;;
16031;SDS011;8120;48.308;8.914;2022-11-15T04:36:59;4.27;;;2.10;;
16031;SDS011;8120;48.308;8.914;2022-11-15T04:39:38;2.07;;;1.73;;
16031;SDS011;8120;48.308;8.914;2022-11-15T04:42:06;3.20;;;2.17;;
16031;SDS011;8120;48.308;8.914;2022-11-15T04:44:35;4.20;;;2.17;;
16031;SDS011;8120;48.308;8.914;2022-11-15T04:47:03;4.23;;;1.90;;
16031;SDS011;8120;48.308;8.914;2022-11-15T04:49:32;2.27;;;1.73;;
16031;SDS011;8120;48.308;8.914;2022-11-15T04:52:01;3.53;;;1.70;;
16031;SDS011;8120;48.308;8.914;2022-11-15T04:54:29;2.10;;;1.50;;
16031;SDS011;8120;48.308;8.914;2022-11-15T04:56:56;4.27;;;1.70;;
16031;SDS011;8120;48.308;8.914;2022-11-15T04:59:24;2.27;;;1.70;;
16031;SDS011;8120;48.308;8.914;2022-11-15T05:01:52;3.23;;;1.73;;
16031;SDS011;8120;48.308;8.914;2022-11-15T05:04:20;5.10;;;1.80;;
16031;SDS011;8120;48.308;8.914;2022-11-15T05:06:48;4.03;;;1.70;;
16031;SDS011;8120;48.308;8.914;2022-11-15T05:09:18;4.17;;;2.60;;
16031;SDS011;8120;48.308;8.914;2022-11-15T05:11:46;1.87;;;1.67;;
16031;SDS011;8120;48.308;8.914;2022-11-15T05:14:14;2.43;;;1.63;;
16031;SDS011;8120;48.308;8.914;2022-11-15T05:16:43;1.30;;;1.07;;
16031;SDS011;8120;48.308;8.914;2022-11-15T05:19:11;3.10;;;1.27;;
16031;SDS011;8120;48.308;8.914;2022-11-15T05:21:39;1.53;;;0.97;;
16031;SDS011;8120;48.308;8.914;2022-11-15T05:24:08;0.80;;;0.80;;
16031;SDS011;8120;48.308;8.914;2022-11-15T05:26:38;4.97;;;1.37;;
16031;SDS011;8120;48.308;8.914;2022-11-15T05:29:06;1.97;;;1.50;;
16031;SDS011;8120;48.308;8.914;2022-11-15T05:31:37;1.80;;;0.90;;
16031;SDS011;8120;48.308;8.914;2022-11-15T05:34:08;2.67;;;1.33;;
16031;SDS011;8120;48.308;8.914;2022-11-15T05:36:37;1.83;;;1.00;;
16031;SDS011;8120;48.308;8.914;2022-11-15T05:39:06;4.40;;;2.10;;
16031;SDS011;8120;48.308;8.914;2022-11-15T05:41:35;3.83;;;1.70;;
16031;SDS011;8120;48.308;8.914;2022-11-15T05:44:09;2.23;;;1.40;;
16031;SDS011;8120;48.308;8.914;2022-11-15T05:46:39;2.03;;;1.40;;
16031;SDS011;8120;48.308;8.914;2022-11-15T05:49:09;5.93;;;2.10;;
16031;SDS011;8120;48.308;8.914;2022-11-15T05:51:40;2.50;;;1.90;;
16031;SDS011;8120;48.308;8.914;2022-11-15T05:54:09;3.80;;;2.20;;
16031;SDS011;8120;48.308;8.914;2022-11-15T05:56:39;3.30;;;2.27;;
16031;SDS011;8120;48.308;8.914;2022-11-15T05:59:07;2.87;;;2.00;;
16031;SDS011;8120;48.308;8.914;2022-11-15T06:01:36;3.10;;;2.07;;
16031;SDS011;8120;48.308;8.914;2022-11-15T06:04:05;6.53;;;2.70;;
16031;SDS011;8120;48.308;8.914;2022-11-15T06:06:33;2.70;;;1.70;;
16031;SDS011;8120;48.308;8.914;2022-11-15T06:09:00;6.37;;;2.70;;
16031;SDS011;8120;48.308;8.914;2022-11-15T06:11:28;4.30;;;2.27;;
16031;SDS011;8120;48.308;8.914;2022-11-15T06:13:57;4.57;;;2.23;;
16031;SDS011;8120;48.308;8.914;2022-11-15T06:16:25;2.83;;;1.60;;
16031;SDS011;8120;48.308;8.914;2022-11-15T06:18:53;2.37;;;1.57;;
16031;SDS011;8120;48.308;8.914;2022-11-15T06:21:21;3.53;;;1.93;;
16031;SDS011;8120;48.308;8.914;2022-11-15T06:23:49;2.30;;;1.40;;
16031;SDS011;8120;48.308;8.914;2022-11-15T06:26:17;1.07;;;0.97;;
16031;SDS011;8120;48.308;8.914;2022-11-15T06:28:45;2.50;;;1.67;;
16031;SDS011;8120;48.308;8.914;2022-11-15T06:31:14;2.07;;;1.43;;
16031;SDS011;8120;48.308;8.914;2022-11-15T06:33:42;2.40;;;1.10;;
16031;SDS011;8120;48.308;8.914;2022-11-15T06:36:10;2.87;;;1.10;;
16031;SDS011;8120;48.308;8.914;2022-11-15T06:38:43;1.43;;;1.10;;
16031;SDS011;8120;48.308;8.914;2022-11-15T06:41:11;1.20;;;1.10;;
16031;SDS011;8120;48.308;8.914;2022-11-15T06:43:40;2.40;;;1.30;;
16031;SDS011;8120;48.308;8.914;2022-11-15T06:46:08;1.50;;;1.40;;
16031;SDS011;8120;48.308;8.914;2022-11-15T06:48:38;1.57;;;1.00;;
16031;SDS011;8120;48.308;8.914;2022-11-15T06:51:06;1.47;;;1.20;;
16031;SDS011;8120;48.308;8.914;2022-11-15T06:53:34;1.93;;;1.27;;
16031;SDS011;8120;48.308;8.914;2022-11-15T06:56:03;1.67;;;1.30;;
16031;SDS011;8120;48.308;8.914;2022-11-15T06:58:32;2.67;;;1.30;;
16031;SDS011;8120;48.308;8.914;2022-11-15T07:01:02;1.70;;;1.40;;
16031;SDS011;8120;48.308;8.914;2022-11-15T07:03:31;6.63;;;4.40;;
16031;SDS011;8120;48.308;8.914;2022-11-15T07:06:02;4.97;;;3.63;;
16031;SDS011;8120;48.308;8.914;2022-11-15T07:08:33;4.63;;;3.37;;
16031;SDS011;8120;48.308;8.914;2022-11-15T07:11:02;4.20;;;2.80;;
16031;SDS011;8120;48.308;8.914;2022-11-15T07:13:31;4.80;;;3.30;;
16031;SDS011;8120;48.308;8.914;2022-11-15T07:16:01;4.60;;;3.53;;
16031;SDS011;8120;48.308;8.914;2022-11-15T07:18:29;7.37;;;4.50;;
16031;SDS011;8120;48.308;8.914;2022-11-15T07:21:00;7.63;;;4.23;;
16031;SDS011;8120;48.308;8.914;2022-11-15T07:23:30;6.13;;;3.80;;
16031;SDS011;8120;48.308;8.914;2022-11-15T07:25:59;6.30;;;3.00;;
16031;SDS011;8120;48.308;8.914;2022-11-15T07:28:27;3.33;;;2.50;;
16031;SDS011;8120;48.308;8.914;2022-11-15T07:30:55;3.20;;;1.87;;
16031;SDS011;8120;48.308;8.914;2022-11-15T07:33:23;4.00;;;1.73;;
16031;SDS011;8120;48.308;8.914;2022-11-15T07:35:51;4.23;;;2.20;;
16031;SDS011;8120;48.308;8.914;2022-11-15T07:38:20;2.67;;;1.57;;
16031;SDS011;8120;48.308;8.914;2022-11-15T07:40:55;5.47;;;2.67;;
16031;SDS011;8120;48.308;8.914;2022-11-15T07:43:24;6.57;;;3.30;;
16031;SDS011;8120;48.308;8.914;2022-11-15T07:45:54;4.80;;;2.87;;
16031;SDS011;8120;48.308;8.914;2022-11-15T07:48:24;6.47;;;3.47;;
16031;SDS011;8120;48.308;8.914;2022-11-15T07:51:09;11.30;;;5.10;;
16031;SDS011;8120;48.308;8.914;2022-11-15T07:53:41;13.00;;;6.60;;
16031;SDS011;8120;48.308;8.914;2022-11-15T07:56:09;10.97;;;5.03;;
16031;SDS011;8120;48.308;8.914;2022-11-15T07:58:37;8.77;;;4.40;;
16031;SDS011;8120;48.308;8.914;2022-11-15T08:01:05;9.30;;;5.03;;
16031;SDS011;8120;48.308;8.914;2022-11-15T08:03:35;8.30;;;4.90;;
16031;SDS011;8120;48.308;8.914;2022-11-15T08:06:03;6.93;;;3.90;;
16031;SDS011;8120;48.308;8.914;2022-11-15T08:08:31;7.70;;;4.40;;
16031;SDS011;8120;48.308;8.914;2022-11-15T08:11:01;29.90;;;13.50;;
16031;SDS011;8120;48.308;8.914;2022-11-15T08:13:29;49.57;;;23.17;;
16031;SDS011;8120;48.308;8.914;2022-11-15T08:15:58;64.30;;;32.40;;
16031;SDS011;8120;48.308;8.914;2022-11-15T08:18:26;20.50;;;10.17;;
16031;SDS011;8120;48.308;8.914;2022-11-15T08:20:57;13.43;;;7.23;;
16031;SDS011;8120;48.308;8.914;2022-11-15T08:23:26;17.00;;;8.37;;
16031;SDS011;8120;48.308;8.914;2022-11-15T08:25:59;16.73;;;8.47;;
16031;SDS011;8120;48.308;8.914;2022-11-15T08:28:29;8.23;;;5.30;;
16031;SDS011;8120;48.308;8.914;2022-11-15T08:30:58;8.67;;;4.13;;
16031;SDS011;8120;48.308;8.914;2022-11-15T08:33:26;8.27;;;3.07;;
16031;SDS011;8120;48.308;8.914;2022-11-15T08:35:56;5.30;;;3.10;;
16031;SDS011;8120;48.308;8.914;2022-11-15T08:38:24;5.43;;;2.90;;
16031;SDS011;8120;48.308;8.914;2022-11-15T08:40:52;4.40;;;3.50;;
16031;SDS011;8120;48.308;8.914;2022-11-15T08:43:28;6.20;;;3.87;;
16031;SDS011;8120;48.308;8.914;2022-11-15T08:48:30;7.47;;;3.97;;
16031;SDS011;8120;48.308;8.914;2022-11-15T08:50:58;6.33;;;2.90;;
16031;SDS011;8120;48.308;8.914;2022-11-15T08:53:26;5.13;;;3.20;;
16031;SDS011;8120;48.308;8.914;2022-11-15T08:55:54;7.10;;;3.70;;
16031;SDS011;8120;48.308;8.914;2022-11-15T08:58:22;4.67;;;3.10;;
16031;SDS011;8120;48.308;8.914;2022-11-15T09:00:51;6.60;;;3.60;;
16031;SDS011;8120;48.308;8.914;2022-11-15T09:03:19;4.63;;;3.20;;
16031;SDS011;8120;48.308;8.914;2022-11-15T09:05:47;6.60;;;3.87;;
16031;SDS011;8120;48.308;8.914;2022-11-15T09:08:14;4.40;;;3.00;;
16031;SDS011;8120;48.308;8.914;2022-11-15T09:11:02;5.60;;;3.27;;
16031;SDS011;8120;48.308;8.914;2022-11-15T09:13:30;6.40;;;3.00;;
16031;SDS011;8120;48.308;8.914;2022-11-15T09:16:00;4.87;;;2.57;;
16031;SDS011;8120;48.308;8.914;2022-11-15T09:18:28;4.63;;;2.60;;
16031;SDS011;8120;48.308;8.914;2022-11-15T09:20:57;5.43;;;2.70;;
16031;SDS011;8120;48.308;8.914;2022-11-15T09:23:25;4.93;;;2.93;;
16031;SDS011;8120;48.308;8.914;2022-11-15T09:25:57;5.83;;;2.80;;
16031;SDS011;8120;48.308;8.914;2022-11-15T09:28:26;8.80;;;3.63;;
16031;SDS011;8120;48.308;8.914;2022-11-15T09:30:56;7.13;;;2.73;;
16031;SDS011;8120;48.308;8.914;2022-11-15T09:33:26;5.67;;;2.90;;
16031;SDS011;8120;48.308;8.914;2022-11-15T09:35:59;5.20;;;2.47;;
16031;SDS011;8120;48.308;8.914;2022-11-15T09:38:27;3.43;;;2.50;;
16031;SDS011;8120;48.308;8.914;2022-11-15T09:40:58;4.97;;;2.53;;
16031;SDS011;8120;48.308;8.914;2022-11-15T09:43:47;4.60;;;2.40;;
16031;SDS011;8120;48.308;8.914;2022-11-15T09:46:21;4.53;;;2.37;;
16031;SDS011;8120;48.308;8.914;2022-11-15T09:48:57;4.00;;;2.20;;
16031;SDS011;8120;48.308;8.914;2022-11-15T09:51:28;3.90;;;2.10;;
16031;SDS011;8120;48.308;8.914;2022-11-15T09:54:03;4.60;;;2.60;;
16031;SDS011;8120;48.308;8.914;2022-11-15T09:56:56;3.43;;;1.90;;
16031;SDS011;8120;48.308;8.914;2022-11-15T09:59:40;3.03;;;1.70;;
16031;SDS011;8120;48.308;8.914;2022-11-15T10:02:26;9.30;;;4.07;;
16031;SDS011;8120;48.308;8.914;2022-11-15T10:05:10;8.83;;;3.83;;
16031;SDS011;8120;48.308;8.914;2022-11-15T10:07:44;8.63;;;4.23;;
16031;SDS011;8120;48.308;8.914;2022-11-15T10:10:20;8.33;;;4.63;;
16031;SDS011;8120;48.308;8.914;2022-11-15T10:12:54;11.60;;;4.10;;
16031;SDS011;8120;48.308;8.914;2022-11-15T10:15:22;6.43;;;3.23;;
16031;SDS011;8120;48.308;8.914;2022-11-15T10:18:01;8.13;;;3.03;;
16031;SDS011;8120;48.308;8.914;2022-11-15T10:20:39;5.40;;;2.50;;
16031;SDS011;8120;48.308;8.914;2022-11-15T10:23:13;5.80;;;3.43;;
16031;SDS011;8120;48.308;8.914;2022-11-15T10:25:43;5.40;;;2.83;;
16031;SDS011;8120;48.308;8.914;2022-11-15T10:28:13;4.63;;;3.00;;
16031;SDS011;8120;48.308;8.914;2022-11-15T10:30:44;5.80;;;3.10;;
16031;SDS011;8120;48.308;8.914;2022-11-15T10:33:18;5.57;;;3.00;;
16031;SDS011;8120;48.308;8.914;2022-11-15T10:38:55;6.20;;;3.07;;
16031;SDS011;8120;48.308;8.914;2022-11-15T10:44:21;2.87;;;2.20;;
16031;SDS011;8120;48.308;8.914;2022-11-15T10:49:53;2.67;;;2.03;;
16031;SDS011;8120;48.308;8.914;2022-11-15T10:52:34;4.03;;;2.13;;
16031;SDS011;8120;48.308;8.914;2022-11-15T10:55:05;4.10;;;1.80;;
16031;SDS011;8120;48.308;8.914;2022-11-15T10:57:49;2.23;;;1.57;;
16031;SDS011;8120;48.308;8.914;2022-11-15T11:00:29;2.73;;;1.70;;
16031;SDS011;8120;48.308;8.914;2022-11-15T11:03:01;3.10;;;1.87;;
16031;SDS011;8120;48.308;8.914;2022-11-15T11:05:32;4.37;;;1.90;;
16031;SDS011;8120;48.308;8.914;2022-11-15T11:08:20;2.33;;;1.40;;
16031;SDS011;8120;48.308;8.914;2022-11-15T11:10:53;3.40;;;1.50;;
16031;SDS011;8120;48.308;8.914;2022-11-15T11:13:29;3.23;;;1.40;;
16031;SDS011;8120;48.308;8.914;2022-11-15T11:16:02;1.80;;;1.00;;
16031;SDS011;8120;48.308;8.914;2022-11-15T11:18:49;2.60;;;1.30;;
16031;SDS011;8120;48.308;8.914;2022-11-15T11:21:25;2.83;;;1.53;;
16031;SDS011;8120;48.308;8.914;2022-11-15T11:24:08;3.20;;;1.53;;
16031;SDS011;8120;48.308;8.914;2022-11-15T11:26:42;2.50;;;1.10;;
16031;SDS011;8120;48.308;8.914;2022-11-15T11:29:26;3.13;;;1.67;;
16031;SDS011;8120;48.308;8.914;2022-11-15T11:32:05;2.50;;;1.43;;
16031;SDS011;8120;48.308;8.914;2022-11-15T11:34:46;2.63;;;1.43;;
16031;SDS011;8120;48.308;8.914;2022-11-15T11:37:24;2.40;;;1.50;;
16031;SDS011;8120;48.308;8.914;2022-11-15T11:40:01;2.73;;;1.77;;
16031;SDS011;8120;48.308;8.914;2022-11-15T11:42:42;3.07;;;1.60;;
16031;SDS011;8120;48.308;8.914;2022-11-15T11:45:22;4.63;;;1.77;;
16031;SDS011;8120;48.308;8.914;2022-11-15T11:47:58;3.13;;;1.77;;
16031;SDS011;8120;48.308;8.914;2022-11-15T11:50:36;3.30;;;1.90;;
16031;SDS011;8120;48.308;8.914;2022-11-15T11:53:05;3.50;;;1.83;;
16031;SDS011;8120;48.308;8.914;2022-11-15T11:55:42;2.93;;;1.87;;
16031;SDS011;8120;48.308;8.914;2022-11-15T11:58:12;3.77;;;1.90;;
16031;SDS011;8120;48.308;8.914;2022-11-15T12:00:45;5.07;;;2.97;;
16031;SDS011;8120;48.308;8.914;2022-11-15T12:03:20;2.90;;;1.73;;
16031;SDS011;8120;48.308;8.914;2022-11-15T12:05:56;3.07;;;1.60;;
16031;SDS011;8120;48.308;8.914;2022-11-15T12:08:29;2.50;;;1.93;;
16031;SDS011;8120;48.308;8.914;2022-11-15T12:11:07;4.73;;;3.00;;
16031;SDS011;8120;48.308;8.914;2022-11-15T12:13:39;4.50;;;2.17;;
16031;SDS011;8120;48.308;8.914;2022-11-15T12:16:11;2.87;;;2.00;;
16031;SDS011;8120;48.308;8.914;2022-11-15T12:18:44;2.33;;;1.90;;
16031;SDS011;8120;48.308;8.914;2022-11-15T12:21:16;4.43;;;1.90;;
16031;SDS011;8120;48.308;8.914;2022-11-15T12:23:55;3.47;;;1.93;;
16031;SDS011;8120;48.308;8.914;2022-11-15T12:26:31;2.57;;;1.93;;
16031;SDS011;8120;48.308;8.914;2022-11-15T12:29:03;2.63;;;2.00;;
16031;SDS011;8120;48.308;8.914;2022-11-15T12:31:36;4.20;;;1.90;;
16031;SDS011;8120;48.308;8.914;2022-11-15T12:34:13;1.83;;;1.47;;
16031;SDS011;8120;48.308;8.914;2022-11-15T12:36:58;3.93;;;1.60;;
16031;SDS011;8120;48.308;8.914;2022-11-15T12:42:39;2.60;;;1.60;;
16031;SDS011;8120;48.308;8.914;2022-11-15T12:45:23;1.80;;;1.50;;
16031;SDS011;8120;48.308;8.914;2022-11-15T12:47:52;5.90;;;2.43;;
16031;SDS011;8120;48.308;8.914;2022-11-15T12:53:26;4.07;;;1.83;;
16031;SDS011;8120;48.308;8.914;2022-11-15T12:58:54;2.80;;;1.93;;
16031;SDS011;8120;48.308;8.914;2022-11-15T13:04:27;1.53;;;1.20;;
16031;SDS011;8120;48.308;8.914;2022-11-15T13:06:59;2.90;;;1.20;;
16031;SDS011;8120;48.308;8.914;2022-11-15T13:15:46;3.23;;;2.90;;
16031;SDS011;8120;48.308;8.914;2022-11-15T13:18:27;1.50;;;1.40;;
16031;SDS011;8120;48.308;8.914;2022-11-15T13:20:58;1.53;;;1.17;;
16031;SDS011;8120;48.308;8.914;2022-11-15T13:23:28;2.63;;;0.83;;
16031;SDS011;8120;48.308;8.914;2022-11-15T13:26:05;1.93;;;0.70;;
16031;SDS011;8120;48.308;8.914;2022-11-15T13:28:39;1.23;;;1.00;;
16031;SDS011;8120;48.308;8.914;2022-11-15T13:34:12;2.83;;;0.70;;
16031;SDS011;8120;48.308;8.914;2022-11-15T13:37:04;4.47;;;2.67;;
16031;SDS011;8120;48.308;8.914;2022-11-15T13:39:39;4.13;;;1.07;;
16031;SDS011;8120;48.308;8.914;2022-11-15T13:42:13;3.57;;;1.37;;
16031;SDS011;8120;48.308;8.914;2022-11-15T13:44:54;0.93;;;0.57;;
16031;SDS011;8120;48.308;8.914;2022-11-15T13:47:24;1.77;;;1.10;;
16031;SDS011;8120;48.308;8.914;2022-11-15T13:49:54;1.53;;;0.97;;
16031;SDS011;8120;48.308;8.914;2022-11-15T13:52:26;1.23;;;0.70;;
16031;SDS011;8120;48.308;8.914;2022-11-15T13:54:59;1.87;;;0.80;;
16031;SDS011;8120;48.308;8.914;2022-11-15T13:57:31;0.60;;;0.60;;
16031;SDS011;8120;48.308;8.914;2022-11-15T14:00:30;1.30;;;1.20;;
16031;SDS011;8120;48.308;8.914;2022-11-15T14:03:07;1.40;;;1.13;;
16031;SDS011;8120;48.308;8.914;2022-11-15T14:05:42;0.70;;;0.60;;
16031;SDS011;8120;48.308;8.914;2022-11-15T14:08:21;1.87;;;1.00;;
16031;SDS011;8120;48.308;8.914;2022-11-15T14:11:05;2.70;;;1.30;;
16031;SDS011;8120;48.308;8.914;2022-11-15T14:13:39;2.50;;;1.23;;
16031;SDS011;8120;48.308;8.914;2022-11-15T14:16:14;2.67;;;1.50;;
16031;SDS011;8120;48.308;8.914;2022-11-15T14:18:47;3.73;;;1.77;;
16031;SDS011;8120;48.308;8.914;2022-11-15T14:21:16;1.70;;;1.00;;
16031;SDS011;8120;48.308;8.914;2022-11-15T14:23:45;2.67;;;2.10;;
16031;SDS011;8120;48.308;8.914;2022-11-15T14:26:25;2.70;;;1.97;;
16031;SDS011;8120;48.308;8.914;2022-11-15T14:28:55;4.27;;;2.90;;
16031;SDS011;8120;48.308;8.914;2022-11-15T14:31:23;5.13;;;2.80;;
16031;SDS011;8120;48.308;8.914;2022-11-15T14:33:52;3.13;;;2.63;;
16031;SDS011;8120;48.308;8.914;2022-11-15T14:36:20;8.43;;;5.00;;
16031;SDS011;8120;48.308;8.914;2022-11-15T14:38:48;8.73;;;6.00;;
16031;SDS011;8120;48.308;8.914;2022-11-15T14:41:17;5.63;;;3.43;;
16031;SDS011;8120;48.308;8.914;2022-11-15T14:43:47;13.73;;;9.80;;
16031;SDS011;8120;48.308;8.914;2022-11-15T14:46:15;12.73;;;8.80;;
16031;SDS011;8120;48.308;8.914;2022-11-15T14:48:42;5.57;;;3.57;;
16031;SDS011;8120;48.308;8.914;2022-11-15T14:51:13;9.43;;;6.27;;
16031;SDS011;8120;48.308;8.914;2022-11-15T14:53:42;15.20;;;10.50;;
16031;SDS011;8120;48.308;8.914;2022-11-15T14:56:11;4.93;;;3.10;;
16031;SDS011;8120;48.308;8.914;2022-11-15T14:58:40;9.03;;;5.87;;
16031;SDS011;8120;48.308;8.914;2022-11-15T15:01:10;6.17;;;3.87;;
16031;SDS011;8120;48.308;8.914;2022-11-15T15:03:40;7.53;;;5.40;;
16031;SDS011;8120;48.308;8.914;2022-11-15T15:06:10;3.10;;;2.17;;
16031;SDS011;8120;48.308;8.914;2022-11-15T15:08:45;3.47;;;1.70;;
16031;SDS011;8120;48.308;8.914;2022-11-15T15:11:16;2.73;;;2.00;;
16031;SDS011;8120;48.308;8.914;2022-11-15T15:13:49;2.23;;;1.60;;
16031;SDS011;8120;48.308;8.914;2022-11-15T15:16:18;1.83;;;1.37;;
16031;SDS011;8120;48.308;8.914;2022-11-15T15:18:46;2.77;;;1.40;;
16031;SDS011;8120;48.308;8.914;2022-11-15T15:21:17;6.50;;;4.10;;
16031;SDS011;8120;48.308;8.914;2022-11-15T15:23:49;3.57;;;2.37;;
16031;SDS011;8120;48.308;8.914;2022-11-15T15:26:17;3.33;;;2.20;;
16031;SDS011;8120;48.308;8.914;2022-11-15T15:28:45;4.07;;;2.73;;
16031;SDS011;8120;48.308;8.914;2022-11-15T15:31:14;3.03;;;2.10;;
16031;SDS011;8120;48.308;8.914;2022-11-15T15:33:42;2.37;;;1.60;;
16031;SDS011;8120;48.308;8.914;2022-11-15T15:36:10;2.00;;;1.30;;
16031;SDS011;8120;48.308;8.914;2022-11-15T15:38:39;0.90;;;0.83;;
16031;SDS011;8120;48.308;8.914;2022-11-15T15:41:10;3.37;;;1.50;;
16031;SDS011;8120;48.308;8.914;2022-11-15T15:43:38;2.83;;;1.40;;
16031;SDS011;8120;48.308;8.914;2022-11-15T15:46:07;3.87;;;1.93;;
16031;SDS011;8120;48.308;8.914;2022-11-15T15:48:37;1.67;;;0.90;;
16031;SDS011;8120;48.308;8.914;2022-11-15T15:51:05;6.93;;;5.03;;
16031;SDS011;8120;48.308;8.914;2022-11-15T15:53:43;9.03;;;7.27;;
16031;SDS011;8120;48.308;8.914;2022-11-15T15:56:12;6.27;;;3.87;;
16031;SDS011;8120;48.308;8.914;2022-11-15T15:58:40;5.37;;;2.60;;
16031;SDS011;8120;48.308;8.914;2022-11-15T16:01:08;2.87;;;1.80;;
16031;SDS011;8120;48.308;8.914;2022-11-15T16:03:36;2.23;;;1.97;;